Time;durP1;ratioP1;P1;durP2;ratioP2;P2;SDS_P1;SDS_P2;PMS_P1;PMS_P2;Temp;Humidity;BMP_temperature;BMP_pressure;BME280_temperature;BME280_humidity;BME280_pressure;Samples;Min_cycle;Max_cycle;Signal;HPM_P1;HPM_P2
2022/03/28 00:00:00;;;;;;;12.10;7.70;;;8.50;95.30;;;;;;4994163;28;20030;-75
2022/03/28 00:02:26;;;;;;;14.40;8.02;;;8.40;95.50;;;;;;4994761;28;20041;-78
2022/03/28 00:04:51;;;;;;;15.25;8.00;;;8.30;96.00;;;;;;4994964;28;20113;-74
2022/03/28 00:07:17;;;;;;;9.93;7.20;;;8.20;96.10;;;;;;4994788;28;20530;-75
2022/03/28 00:09:43;;;;;;;14.00;7.70;;;8.20;96.40;;;;;;4994801;28;20104;-75
2022/03/28 00:12:09;;;;;;;14.63;7.80;;;8.10;96.80;;;;;;4993454;28;20022;-75
2022/03/28 00:14:34;;;;;;;16.27;9.73;;;8.20;97.00;;;;;;4995255;28;20030;-75
2022/03/28 00:17:00;;;;;;;13.35;7.85;;;8.10;97.30;;;;;;5006650;28;20033;-75
2022/03/28 00:19:25;;;;;;;11.80;8.10;;;8.10;97.40;;;;;;5007198;28;20049;-76
2022/03/28 00:21:51;;;;;;;12.70;8.15;;;8.10;97.70;;;;;;5006805;28;20030;-76
2022/03/28 00:24:17;;;;;;;16.35;7.78;;;8.10;97.70;;;;;;5008093;28;20109;-75
2022/03/28 00:26:42;;;;;;;15.98;9.60;;;8.00;97.80;;;;;;5007820;28;20024;-76
2022/03/28 00:29:08;;;;;;;14.52;8.32;;;8.00;98.10;;;;;;4997645;28;20443;-75
2022/03/28 00:31:34;;;;;;;14.85;9.15;;;8.00;98.60;;;;;;4994647;28;20023;-75
2022/03/28 00:33:59;;;;;;;15.38;7.88;;;8.00;98.30;;;;;;4994599;28;20046;-77
2022/03/28 00:36:25;;;;;;;14.23;8.68;;;8.00;98.30;;;;;;4994515;28;20068;-76
2022/03/28 00:38:51;;;;;;;16.00;8.93;;;8.00;98.50;;;;;;4994497;28;20407;-76
2022/03/28 00:41:17;;;;;;;14.18;7.90;;;8.00;98.30;;;;;;4994495;28;20022;-77
2022/03/28 00:43:57;;;;;;;24.30;9.98;;;8.00;98.60;;;;;;4994071;28;20038;-76
2022/03/28 00:46:23;;;;;;;14.20;7.75;;;8.00;98.80;;;;;;4994545;28;20030;-77
2022/03/28 00:48:50;;;;;;;11.57;8.15;;;7.90;98.80;;;;;;4993452;28;20023;-75
2022/03/28 00:51:17;;;;;;;12.10;8.98;;;7.80;99.00;;;;;;4994294;28;20435;-75
2022/03/28 00:53:44;;;;;;;16.55;8.70;;;7.70;99.50;;;;;;4994434;28;20029;-77
2022/03/28 00:56:12;;;;;;;12.13;7.82;;;7.70;99.90;;;;;;4994374;28;20394;-75
2022/03/28 00:58:38;;;;;;;12.25;8.73;;;7.80;99.90;;;;;;4992506;28;20440;-76
2022/03/28 01:01:04;;;;;;;14.05;8.35;;;7.90;99.90;;;;;;4993699;28;20057;-75
2022/03/28 01:03:30;;;;;;;12.38;8.52;;;7.90;99.90;;;;;;4993329;28;20030;-75
2022/03/28 01:05:56;;;;;;;19.13;8.93;;;7.90;99.90;;;;;;4993827;28;20093;-75
2022/03/28 01:08:23;;;;;;;12.85;8.00;;;7.80;99.90;;;;;;4994224;28;20092;-75
2022/03/28 01:10:51;;;;;;;20.73;8.70;;;7.80;99.90;;;;;;4992377;28;20557;-76
2022/03/28 01:13:17;;;;;;;14.93;8.75;;;7.60;99.90;;;;;;4993529;28;20443;-75
2022/03/28 01:15:42;;;;;;;13.68;8.60;;;7.60;99.90;;;;;;4992216;28;20030;-75
2022/03/28 01:18:11;;;;;;;13.32;7.70;;;7.50;99.90;;;;;;4993278;28;20466;-75
2022/03/28 01:20:39;;;;;;;17.13;8.70;;;7.50;99.90;;;;;;4993197;28;20110;-76
2022/03/28 01:23:06;;;;;;;15.02;8.98;;;7.50;99.90;;;;;;4993943;28;20418;-76
2022/03/28 01:25:31;;;;;;;13.60;8.35;;;7.40;99.90;;;;;;4992476;28;20030;-78
2022/03/28 01:28:01;;;;;;;13.13;9.48;;;7.40;99.90;;;;;;4993499;28;20027;-76
2022/03/28 01:30:29;;;;;;;14.77;9.40;;;7.50;99.90;;;;;;4991922;28;20467;-77
2022/03/28 01:32:56;;;;;;;17.40;8.73;;;7.40;99.90;;;;;;4993131;28;20026;-75
2022/03/28 01:35:30;;;;;;;17.55;8.70;;;7.40;99.90;;;;;;4993232;28;20181;-75
2022/03/28 01:37:56;;;;;;;12.55;7.80;;;7.40;99.90;;;;;;4993191;28;20080;-77
2022/03/28 01:40:22;;;;;;;12.57;10.05;;;7.30;99.90;;;;;;4991959;28;20030;-74
2022/03/28 01:42:49;;;;;;;13.38;8.95;;;7.20;99.90;;;;;;4992980;28;20723;-75
2022/03/28 01:45:15;;;;;;;12.63;8.20;;;7.10;99.90;;;;;;4992015;28;20403;-75
2022/03/28 01:47:41;;;;;;;16.02;8.60;;;7.20;99.90;;;;;;4992857;28;20029;-74
2022/03/28 01:50:07;;;;;;;15.35;9.82;;;7.10;99.90;;;;;;4991771;28;20045;-75
2022/03/28 01:52:33;;;;;;;14.20;8.55;;;7.00;99.90;;;;;;4992561;28;20474;-76
2022/03/28 01:54:58;;;;;;;17.88;9.20;;;7.00;99.90;;;;;;4993002;28;20030;-75
2022/03/28 01:57:24;;;;;;;17.25;8.38;;;7.00;99.90;;;;;;4992951;28;20034;-75
2022/03/28 01:59:50;;;;;;;13.10;9.05;;;7.00;99.90;;;;;;4993054;28;20023;-74
2022/03/28 02:02:15;;;;;;;11.45;8.13;;;6.90;99.90;;;;;;4992502;28;20088;-76
2022/03/28 02:04:41;;;;;;;15.77;8.52;;;7.00;99.90;;;;;;4991636;28;20038;-75
2022/03/28 02:07:06;;;;;;;16.52;9.55;;;7.00;99.90;;;;;;4992868;28;20030;-75
2022/03/28 02:09:32;;;;;;;17.85;9.77;;;7.00;99.90;;;;;;4992952;28;20296;-76
2022/03/28 02:11:57;;;;;;;14.70;9.13;;;7.00;99.90;;;;;;4992444;28;20022;-75
2022/03/28 02:14:23;;;;;;;19.63;10.40;;;7.00;99.90;;;;;;4992368;28;20028;-74
2022/03/28 02:16:48;;;;;;;16.00;8.90;;;6.90;99.90;;;;;;4995013;28;20035;-75
2022/03/28 02:19:14;;;;;;;16.35;8.90;;;6.90;99.90;;;;;;4996711;28;20054;-75
2022/03/28 02:21:40;;;;;;;16.10;10.02;;;6.90;99.90;;;;;;4995230;28;20022;-76
2022/03/28 02:24:05;;;;;;;19.60;9.63;;;6.90;99.90;;;;;;4995388;28;20117;-75
2022/03/28 02:26:31;;;;;;;19.63;9.23;;;6.90;99.90;;;;;;4996626;28;20386;-75
2022/03/28 02:28:56;;;;;;;19.17;9.60;;;6.90;99.90;;;;;;4996403;28;20030;-76
2022/03/28 02:31:22;;;;;;;16.98;9.32;;;7.00;99.90;;;;;;4994880;28;20026;-75
2022/03/28 02:33:48;;;;;;;17.20;9.32;;;6.90;99.90;;;;;;4996526;28;20483;-74
2022/03/28 02:36:13;;;;;;;12.93;9.38;;;6.90;99.90;;;;;;4996413;28;20114;-75
2022/03/28 02:38:39;;;;;;;16.58;9.73;;;6.90;99.90;;;;;;4996368;28;20085;-75
2022/03/28 02:41:04;;;;;;;16.85;9.50;;;6.80;99.90;;;;;;4996200;28;20033;-75
2022/03/28 02:43:30;;;;;;;18.75;9.35;;;6.80;99.90;;;;;;4994788;28;20035;-75
2022/03/28 02:45:55;;;;;;;16.38;9.50;;;6.80;99.90;;;;;;4994695;28;20026;-75
2022/03/28 02:48:21;;;;;;;16.13;10.07;;;6.70;99.90;;;;;;4996502;28;20539;-74
2022/03/28 02:50:48;;;;;;;13.98;9.95;;;6.70;99.90;;;;;;4994649;28;20422;-75
2022/03/28 02:53:13;;;;;;;18.00;10.02;;;6.70;99.90;;;;;;4994510;28;20065;-75
2022/03/28 02:55:39;;;;;;;14.15;9.10;;;6.70;99.90;;;;;;4995975;28;20030;-76
2022/03/28 02:58:05;;;;;;;21.23;10.57;;;6.60;99.90;;;;;;4995924;28;20022;-75
2022/03/28 03:00:30;;;;;;;14.80;10.20;;;6.60;99.90;;;;;;4994698;28;20030;-75
2022/03/28 03:02:56;;;;;;;19.80;11.10;;;6.50;99.90;;;;;;4994534;28;20022;-74
2022/03/28 03:05:23;;;;;;;20.67;11.95;;;6.50;99.90;;;;;;4995935;28;20034;-75
2022/03/28 03:07:49;;;;;;;20.35;11.15;;;6.50;99.90;;;;;;4995565;28;20018;-75
2022/03/28 03:10:15;;;;;;;19.45;11.45;;;6.50;99.90;;;;;;4996024;28;20053;-75
2022/03/28 03:12:41;;;;;;;13.48;9.77;;;6.50;99.90;;;;;;4995680;28;20061;-75
2022/03/28 03:15:07;;;;;;;23.50;9.95;;;6.40;99.90;;;;;;4994527;28;20104;-75
2022/03/28 03:17:33;;;;;;;17.20;10.82;;;6.40;99.90;;;;;;4994295;28;20062;-74
2022/03/28 03:19:58;;;;;;;21.35;11.18;;;6.30;99.90;;;;;;4994303;28;20525;-75
2022/03/28 03:22:24;;;;;;;20.75;11.15;;;6.30;99.90;;;;;;4995521;28;20517;-75
2022/03/28 03:24:49;;;;;;;19.90;10.68;;;6.30;99.90;;;;;;4995709;28;20157;-76
2022/03/28 03:27:15;;;;;;;16.38;9.90;;;6.30;99.90;;;;;;4994148;28;20033;-74
2022/03/28 03:29:41;;;;;;;21.90;10.60;;;6.20;99.90;;;;;;4995280;28;20499;-75
2022/03/28 03:32:07;;;;;;;17.15;10.10;;;6.30;99.90;;;;;;4993934;28;20033;-75
2022/03/28 03:34:34;;;;;;;20.08;12.02;;;6.20;99.90;;;;;;4995132;28;20038;-76
2022/03/28 03:37:00;;;;;;;19.38;10.50;;;6.20;99.90;;;;;;4995278;28;20030;-74
2022/03/28 03:39:26;;;;;;;17.33;10.70;;;6.20;99.90;;;;;;4995615;28;20053;-75
2022/03/28 03:41:52;;;;;;;14.48;9.70;;;6.20;99.90;;;;;;4995278;28;20034;-75
2022/03/28 03:44:18;;;;;;;15.55;10.40;;;6.10;99.90;;;;;;4995466;28;20065;-75
2022/03/28 03:46:43;;;;;;;12.45;9.85;;;6.10;99.90;;;;;;4995147;28;20422;-75
2022/03/28 03:49:09;;;;;;;18.30;10.68;;;6.10;99.90;;;;;;4993979;28;20071;-75
2022/03/28 03:51:36;;;;;;;21.30;10.60;;;6.00;99.90;;;;;;4994849;28;20021;-75
2022/03/28 03:54:01;;;;;;;19.33;9.77;;;6.00;99.90;;;;;;4995059;28;20076;-75
2022/03/28 03:56:28;;;;;;;14.95;11.05;;;6.00;99.90;;;;;;4993697;28;20120;-76
2022/03/28 03:58:54;;;;;;;25.67;9.93;;;6.00;99.90;;;;;;4993680;28;20041;-74
2022/03/28 04:01:21;;;;;;;17.98;9.95;;;5.90;99.90;;;;;;4993857;28;20026;-75
2022/03/28 04:03:46;;;;;;;15.27;9.55;;;5.90;99.90;;;;;;4995047;28;20022;-75
2022/03/28 04:06:12;;;;;;;17.23;10.35;;;5.80;99.90;;;;;;4993487;28;20439;-75
2022/03/28 04:08:37;;;;;;;14.20;10.20;;;5.80;99.90;;;;;;4993304;28;20044;-74
2022/03/28 04:11:04;;;;;;;19.30;9.57;;;5.90;99.90;;;;;;4994550;28;20022;-75
2022/03/28 04:13:30;;;;;;;16.00;8.85;;;5.90;99.90;;;;;;4993633;28;20501;-75
2022/03/28 04:15:55;;;;;;;17.95;11.05;;;5.90;99.90;;;;;;4994864;28;20034;-77
2022/03/28 04:18:21;;;;;;;17.42;10.80;;;5.90;99.90;;;;;;4995144;28;20200;-75
2022/03/28 04:20:47;;;;;;;26.38;10.43;;;5.80;99.90;;;;;;4994613;28;20098;-74
2022/03/28 04:23:12;;;;;;;16.95;9.60;;;5.80;99.90;;;;;;4994881;28;20029;-76
2022/03/28 04:25:38;;;;;;;15.00;9.38;;;5.70;99.90;;;;;;4994385;28;20121;-77
2022/03/28 04:28:06;;;;;;;19.40;10.38;;;5.70;99.90;;;;;;4993392;28;20022;-75
2022/03/28 04:30:32;;;;;;;25.23;10.95;;;5.70;99.90;;;;;;4994313;28;20026;-75
2022/03/28 04:32:57;;;;;;;20.30;10.07;;;5.70;99.90;;;;;;4993936;28;20538;-75
2022/03/28 04:35:23;;;;;;;15.52;9.27;;;5.70;99.90;;;;;;4994012;28;20487;-76
2022/03/28 04:37:49;;;;;;;16.40;9.88;;;5.70;99.90;;;;;;4994052;28;20050;-76
2022/03/28 04:40:17;;;;;;;18.73;10.43;;;5.70;99.90;;;;;;4992129;28;20030;-75
2022/03/28 04:42:46;;;;;;;19.48;10.52;;;5.60;99.90;;;;;;4993594;28;20058;-75
2022/03/28 04:45:12;;;;;;;21.38;9.98;;;5.70;99.90;;;;;;4994247;28;20209;-76
2022/03/28 04:47:38;;;;;;;21.92;10.02;;;5.60;99.90;;;;;;4992754;28;20035;-76
2022/03/28 04:50:05;;;;;;;18.48;10.07;;;5.60;99.90;;;;;;4992617;28;20022;-75
2022/03/28 04:52:31;;;;;;;21.10;11.45;;;5.60;99.90;;;;;;4992382;28;20054;-75
2022/03/28 04:54:56;;;;;;;21.83;10.48;;;5.50;99.90;;;;;;4993885;28;20031;-75
2022/03/28 04:57:22;;;;;;;24.45;12.13;;;5.50;99.90;;;;;;4992632;28;20035;-75
2022/03/28 04:59:48;;;;;;;19.88;11.85;;;5.50;99.90;;;;;;4993802;28;20023;-76
2022/03/28 05:02:14;;;;;;;18.15;11.10;;;5.60;99.90;;;;;;4992148;28;20553;-75
2022/03/28 05:04:40;;;;;;;21.40;10.30;;;5.60;99.90;;;;;;4993656;28;20022;-76
2022/03/28 05:07:06;;;;;;;18.70;10.48;;;5.60;99.90;;;;;;4993687;28;20027;-75
2022/03/28 05:09:32;;;;;;;24.77;10.75;;;5.60;99.90;;;;;;4992204;28;20037;-75
2022/03/28 05:11:58;;;;;;;20.55;10.23;;;5.70;99.90;;;;;;4993365;28;20014;-76
2022/03/28 05:14:24;;;;;;;21.20;11.30;;;5.60;99.90;;;;;;4993645;28;20018;-75
2022/03/28 05:16:49;;;;;;;18.48;11.50;;;5.60;99.90;;;;;;4993383;28;20026;-75
2022/03/28 05:19:15;;;;;;;20.20;10.32;;;5.60;99.90;;;;;;4992026;28;20238;-74
2022/03/28 05:21:41;;;;;;;17.45;10.75;;;5.70;99.90;;;;;;4993965;28;20046;-76
2022/03/28 05:24:07;;;;;;;19.00;10.13;;;5.80;99.90;;;;;;4993500;28;20033;-76
2022/03/28 05:26:32;;;;;;;17.65;9.70;;;5.90;99.90;;;;;;4992023;28;20542;-75
2022/03/28 05:28:58;;;;;;;18.73;9.80;;;6.00;99.90;;;;;;4993513;28;20018;-75
2022/03/28 05:31:24;;;;;;;25.85;10.40;;;6.10;99.90;;;;;;4993186;28;20022;-75
2022/03/28 05:33:50;;;;;;;16.48;10.82;;;6.30;99.90;;;;;;4991879;28;20510;-75
2022/03/28 05:36:16;;;;;;;24.13;10.93;;;6.50;99.90;;;;;;4993783;28;20454;-76
2022/03/28 05:38:42;;;;;;;25.23;10.38;;;6.60;99.90;;;;;;4993193;28;20026;-76
2022/03/28 05:41:08;;;;;;;19.65;10.02;;;6.70;99.90;;;;;;4991502;28;20037;-75
2022/03/28 05:43:38;;;;;;;17.10;9.98;;;6.80;99.90;;;;;;4993038;28;20037;-75
2022/03/28 05:46:04;;;;;;;25.02;11.80;;;7.10;99.90;;;;;;4992826;28;20022;-74
2022/03/28 05:48:30;;;;;;;25.40;11.18;;;7.50;99.90;;;;;;4993132;28;20478;-74
2022/03/28 05:50:56;;;;;;;20.65;11.50;;;7.60;99.90;;;;;;4990679;28;20049;-75
2022/03/28 05:53:22;;;;;;;22.00;10.88;;;7.50;99.90;;;;;;4991559;28;20026;-75
2022/03/28 05:55:48;;;;;;;20.60;10.82;;;7.40;99.90;;;;;;4992808;28;20114;-75
2022/03/28 05:58:14;;;;;;;20.85;10.95;;;7.20;99.90;;;;;;4991643;28;20065;-75
2022/03/28 06:00:40;;;;;;;22.13;10.02;;;7.10;99.90;;;;;;4992632;28;20102;-75
2022/03/28 06:03:06;;;;;;;22.45;10.73;;;7.00;99.90;;;;;;4992336;28;20387;-74
2022/03/28 06:05:32;;;;;;;20.48;11.27;;;7.00;99.90;;;;;;4992573;28;20109;-76
2022/03/28 06:50:05;;;;;;;17.23;10.48;;;8.80;96.90;;;;;;5149522;27;20124;-74
2022/03/28 06:52:32;;;;;;;15.82;10.25;;;8.70;97.20;;;;;;5102557;27;1274870;-76
2022/03/28 06:54:57;;;;;;;14.35;9.77;;;8.80;96.80;;;;;;5129685;28;20022;-77
2022/03/28 06:57:23;;;;;;;20.20;11.07;;;8.70;96.70;;;;;;5129482;28;20427;-77
2022/03/28 06:59:48;;;;;;;17.67;10.85;;;8.70;96.70;;;;;;5129676;28;20019;-77
2022/03/28 07:02:14;;;;;;;22.70;11.30;;;8.90;96.60;;;;;;5129464;28;20667;-77
2022/03/28 07:04:40;;;;;;;16.85;11.40;;;8.80;96.30;;;;;;5129377;28;20110;-77
2022/03/28 07:07:08;;;;;;;21.17;11.90;;;8.80;96.60;;;;;;5129601;28;20511;-77
2022/03/28 07:09:34;;;;;;;15.60;10.63;;;9.00;96.20;;;;;;5129714;28;20030;-77
2022/03/28 07:12:00;;;;;;;21.23;10.85;;;9.30;95.80;;;;;;5129328;28;20385;-78
2022/03/28 07:14:25;;;;;;;16.83;11.18;;;9.40;95.50;;;;;;5129772;28;20047;-77
2022/03/28 07:16:52;;;;;;;19.83;10.63;;;9.70;95.20;;;;;;5129371;28;20039;-79
2022/03/28 07:19:18;;;;;;;18.52;11.32;;;9.80;95.00;;;;;;5111784;28;20396;-77
2022/03/28 07:21:44;;;;;;;16.60;11.60;;;9.90;94.60;;;;;;5129634;28;20028;-76
2022/03/28 07:24:09;;;;;;;20.35;11.85;;;9.90;94.40;;;;;;5129849;28;20108;-78
2022/03/28 07:26:35;;;;;;;19.77;10.77;;;10.00;94.40;;;;;;5111240;28;20112;-77
2022/03/28 07:29:02;;;;;;;25.98;11.73;;;9.90;94.40;;;;;;5129383;28;20035;-78
2022/03/28 07:31:28;;;;;;;22.30;11.18;;;9.80;94.50;;;;;;5128929;28;20464;-78
2022/03/28 07:34:29;;;;;;;15.57;10.40;;;10.00;94.10;;;;;;5129195;28;20037;-77
2022/03/28 07:36:39;;;;;;;16.08;10.45;;;10.10;94.20;;;;;;5129217;28;20102;-76
2022/03/28 07:39:04;;;;;;;18.27;10.85;;;10.30;93.80;;;;;;5110423;28;20531;-77
2022/03/28 07:41:30;;;;;;;24.20;12.50;;;10.50;93.40;;;;;;5129148;28;20434;-78
2022/03/28 07:43:55;;;;;;;18.40;10.93;;;10.60;93.50;;;;;;5117395;28;20426;-79
2022/03/28 07:46:21;;;;;;;27.45;12.50;;;10.60;93.40;;;;;;5097247;28;20028;-77
2022/03/28 07:48:47;;;;;;;16.42;11.63;;;10.80;93.20;;;;;;5115207;28;20036;-76
2022/03/28 07:51:12;;;;;;;20.02;11.60;;;11.10;93.00;;;;;;5114842;28;20028;-76
2022/03/28 07:53:39;;;;;;;22.05;12.85;;;11.10;92.50;;;;;;5114854;28;20028;-77
2022/03/28 07:56:04;;;;;;;18.40;11.98;;;11.30;92.20;;;;;;5097609;28;20026;-78
2022/03/28 07:58:30;;;;;;;20.63;12.00;;;11.50;92.00;;;;;;5114852;28;20090;-78
2022/03/28 08:00:56;;;;;;;20.38;12.90;;;11.40;91.70;;;;;;5114763;28;20034;-79
2022/03/28 08:03:21;;;;;;;17.25;11.40;;;11.50;91.90;;;;;;5096248;28;20024;-78
2022/03/28 08:05:47;;;;;;;24.25;12.70;;;11.70;91.60;;;;;;5114904;28;20111;-76
2022/03/28 08:08:12;;;;;;;20.70;12.75;;;11.80;91.30;;;;;;5114872;28;20032;-78
2022/03/28 08:10:38;;;;;;;20.50;13.23;;;11.80;91.30;;;;;;5114903;28;20038;-78
2022/03/28 08:13:03;;;;;;;18.52;11.70;;;12.00;90.90;;;;;;5114941;28;20023;-78
2022/03/28 08:15:30;;;;;;;21.70;12.48;;;11.90;90.80;;;;;;5115254;28;20027;-77
2022/03/28 08:17:59;;;;;;;22.33;14.55;;;12.00;90.30;;;;;;5114583;28;20023;-78
2022/03/28 08:20:25;;;;;;;21.90;12.02;;;12.30;90.30;;;;;;5096000;28;20022;-76
2022/03/28 08:22:51;;;;;;;15.82;12.10;;;12.40;90.00;;;;;;5114354;28;20393;-77
2022/03/28 08:25:18;;;;;;;21.60;12.43;;;12.60;90.10;;;;;;5114428;28;20022;-77
2022/03/28 08:27:44;;;;;;;23.77;12.25;;;12.70;89.50;;;;;;5114463;28;20103;-77
2022/03/28 08:30:12;;;;;;;24.55;13.35;;;12.80;89.30;;;;;;5114221;28;20107;-78
2022/03/28 08:32:38;;;;;;;25.48;13.32;;;12.80;89.70;;;;;;5114028;28;20098;-75
2022/03/28 08:35:05;;;;;;;22.77;13.35;;;13.00;89.10;;;;;;5114059;28;20016;-77
2022/03/28 08:37:31;;;;;;;18.45;12.95;;;13.30;88.40;;;;;;5114854;28;20090;-78
2022/03/28 08:39:57;;;;;;;26.77;13.48;;;13.40;87.30;;;;;;5114903;28;20020;-78
2022/03/28 08:42:25;;;;;;;29.40;13.20;;;13.40;87.60;;;;;;5114525;28;20039;-77
2022/03/28 08:44:51;;;;;;;18.52;12.80;;;13.50;87.10;;;;;;5114254;28;20020;-78
2022/03/28 08:47:19;;;;;;;21.33;12.15;;;13.60;86.60;;;;;;5114141;28;20617;-78
2022/03/28 08:49:50;;;;;;;20.98;13.05;;;13.70;86.30;;;;;;5115051;28;20033;-77
2022/03/28 08:52:16;;;;;;;24.13;13.70;;;13.70;85.60;;;;;;5096072;28;20080;-77
2022/03/28 08:54:42;;;;;;;26.15;13.43;;;13.70;85.00;;;;;;5113450;28;20107;-79
2022/03/28 08:57:08;;;;;;;23.85;13.77;;;14.00;84.30;;;;;;5114348;28;20477;-77
2022/03/28 08:59:33;;;;;;;22.67;12.65;;;14.10;83.90;;;;;;5113970;28;20030;-77
2022/03/28 09:01:59;;;;;;;29.33;13.95;;;14.30;83.80;;;;;;5095440;28;20122;-78
2022/03/28 09:04:25;;;;;;;26.38;13.02;;;14.30;83.00;;;;;;5114143;28;20106;-77
2022/03/28 09:06:50;;;;;;;21.80;14.30;;;14.50;83.00;;;;;;5115027;28;20081;-77
2022/03/28 09:09:26;;;;;;;24.73;13.60;;;14.70;81.90;;;;;;5114289;28;20024;-77
2022/03/28 09:11:54;;;;;;;26.70;14.02;;;14.80;80.70;;;;;;5114565;28;20435;-79
2022/03/28 09:14:20;;;;;;;18.02;13.32;;;14.90;80.20;;;;;;5114618;28;20019;-78
2022/03/28 09:17:10;;;;;;;23.83;13.25;;;14.90;77.80;;;;;;5095996;28;20016;-79
2022/03/28 09:19:48;;;;;;;19.75;13.70;;;14.80;78.60;;;;;;5095707;28;20028;-77
2022/03/28 09:22:17;;;;;;;23.50;13.73;;;14.90;77.60;;;;;;5096000;28;20039;-78
2022/03/28 09:24:44;;;;;;;29.13;14.32;;;15.10;76.80;;;;;;5096084;28;20034;-77
2022/03/28 09:27:12;;;;;;;26.35;15.35;;;15.20;75.80;;;;;;5113820;28;20033;-76
2022/03/28 09:29:56;;;;;;;26.95;14.05;;;15.40;75.20;;;;;;5095562;28;20055;-78
2022/03/28 09:32:27;;;;;;;27.95;16.33;;;15.50;75.10;;;;;;5113340;28;20068;-77
2022/03/28 09:35:12;;;;;;;20.00;14.00;;;15.70;74.80;;;;;;5114064;28;20225;-78
2022/03/28 09:37:52;;;;;;;26.52;15.52;;;15.60;74.70;;;;;;5114675;28;20030;-77
2022/03/28 09:40:32;;;;;;;25.70;15.05;;;15.90;73.40;;;;;;5095331;28;20030;-78
2022/03/28 09:42:59;;;;;;;21.73;15.10;;;15.90;72.70;;;;;;5113556;28;20098;-78
2022/03/28 09:45:29;;;;;;;25.02;14.95;;;16.10;71.40;;;;;;5113371;28;20030;-78
2022/03/28 09:48:03;;;;;;;22.38;15.52;;;16.20;70.80;;;;;;5113495;28;20450;-78
2022/03/28 09:50:40;;;;;;;23.33;14.55;;;16.20;71.30;;;;;;5096087;28;20034;-78
2022/03/28 09:53:15;;;;;;;19.98;13.68;;;16.10;71.20;;;;;;5095228;28;20035;-78
2022/03/28 09:55:49;;;;;;;19.98;13.32;;;16.50;70.50;;;;;;5114571;28;20108;-79
2022/03/28 09:58:36;;;;;;;25.98;14.02;;;16.80;69.60;;;;;;5095658;28;20384;-78
2022/03/28 10:01:06;;;;;;;30.45;15.07;;;16.90;69.00;;;;;;5095280;28;20023;-79
2022/03/28 10:03:33;;;;;;;26.20;14.23;;;16.90;69.40;;;;;;5114340;28;20076;-78
2022/03/28 10:06:03;;;;;;;24.65;14.35;;;17.10;68.70;;;;;;5113747;28;20048;-78
2022/03/28 10:08:30;;;;;;;25.20;12.70;;;17.30;68.30;;;;;;5095528;28;20119;-78
2022/03/28 10:10:59;;;;;;;27.13;15.98;;;17.50;68.30;;;;;;5113040;28;20028;-76
2022/03/28 10:13:26;;;;;;;23.38;15.05;;;17.70;68.20;;;;;;5112910;28;20392;-79
2022/03/28 10:15:53;;;;;;;29.50;16.88;;;17.80;67.60;;;;;;5112962;28;20496;-78
2022/03/28 10:18:19;;;;;;;31.08;16.67;;;17.80;67.50;;;;;;5094860;28;20024;-78
2022/03/28 10:20:47;;;;;;;27.00;15.57;;;17.80;67.20;;;;;;5113262;28;20020;-78
2022/03/28 10:23:17;;;;;;;28.52;14.77;;;17.80;67.00;;;;;;5112800;28;20043;-78
2022/03/28 10:25:44;;;;;;;31.27;17.48;;;18.00;66.40;;;;;;5114204;28;20050;-77
2022/03/28 10:28:10;;;;;;;24.45;15.50;;;18.00;66.40;;;;;;5113251;28;20043;-78
2022/03/28 10:30:36;;;;;;;26.25;15.45;;;18.20;66.20;;;;;;5112441;28;20016;-78
2022/03/28 10:33:16;;;;;;;24.88;15.98;;;18.20;66.20;;;;;;5113037;28;20107;-78
2022/03/28 10:36:02;;;;;;;25.03;15.43;;;18.30;66.00;;;;;;5112693;28;20031;-78
2022/03/28 10:38:28;;;;;;;24.20;15.77;;;18.40;65.90;;;;;;5112902;28;20119;-78
2022/03/28 10:40:59;;;;;;;26.73;16.42;;;18.20;65.50;;;;;;5112926;28;20473;-79
2022/03/28 10:43:30;;;;;;;22.98;14.02;;;18.50;65.90;;;;;;5113675;28;20059;-78
2022/03/28 10:46:06;;;;;;;33.20;15.50;;;18.80;64.70;;;;;;5113512;28;20019;-77
2022/03/28 10:48:59;;;;;;;24.48;14.57;;;18.80;64.70;;;;;;5095161;28;20032;-78
2022/03/28 10:51:30;;;;;;;23.13;16.08;;;19.00;63.70;;;;;;5113624;28;20088;-78
2022/03/28 10:53:59;;;;;;;21.58;14.48;;;19.20;62.80;;;;;;5113841;28;20023;-78
2022/03/28 10:56:27;;;;;;;27.20;14.40;;;19.30;62.50;;;;;;5113413;28;20020;-77
2022/03/28 10:58:57;;;;;;;22.42;15.05;;;19.40;62.30;;;;;;5114121;28;20072;-77
2022/03/28 11:01:32;;;;;;;20.83;14.43;;;19.50;61.20;;;;;;5095203;28;20031;-78
2022/03/28 11:04:23;;;;;;;23.42;14.07;;;19.50;61.10;;;;;;5094172;28;20028;-77
2022/03/28 11:07:03;;;;;;;22.00;15.38;;;19.70;60.50;;;;;;5112925;28;20027;-77
2022/03/28 11:09:41;;;;;;;23.05;13.93;;;19.60;59.70;;;;;;5112451;28;20099;-78
2022/03/28 11:12:31;;;;;;;19.95;13.90;;;19.70;59.50;;;;;;5112364;28;20020;-78
2022/03/28 11:15:01;;;;;;;25.33;13.68;;;19.80;58.00;;;;;;5112527;28;20019;-79
2022/03/28 11:17:34;;;;;;;20.45;13.02;;;19.90;58.10;;;;;;5111800;28;20015;-77
2022/03/28 11:20:09;;;;;;;20.95;14.23;;;20.00;57.50;;;;;;5116325;28;20068;-76
2022/03/28 11:22:50;;;;;;;24.77;16.25;;;20.10;57.60;;;;;;5116279;28;20134;-77
2022/03/28 11:25:28;;;;;;;21.83;13.77;;;20.10;58.40;;;;;;5117910;28;20023;-78
2022/03/28 11:28:10;;;;;;;22.17;15.98;;;20.20;57.90;;;;;;5116378;28;20027;-77
2022/03/28 11:30:45;;;;;;;19.92;13.15;;;20.10;57.20;;;;;;5116586;28;20023;-78
2022/03/28 11:33:14;;;;;;;17.67;12.65;;;20.00;56.80;;;;;;5116631;28;20027;-77
2022/03/28 11:35:49;;;;;;;18.20;13.93;;;20.10;56.80;;;;;;5116500;28;20075;-78
2022/03/28 11:38:19;;;;;;;22.17;14.60;;;20.10;56.70;;;;;;5116916;28;20074;-78
2022/03/28 11:40:45;;;;;;;26.37;14.90;;;20.20;56.50;;;;;;5115928;28;20027;-79
2022/03/28 11:43:11;;;;;;;19.27;14.82;;;20.30;56.80;;;;;;5116454;28;20019;-77
2022/03/28 11:45:49;;;;;;;19.02;14.00;;;20.40;56.20;;;;;;5116167;28;20020;-78
2022/03/28 11:48:19;;;;;;;21.90;13.98;;;20.50;56.10;;;;;;5117086;28;20373;-78
2022/03/28 11:50:44;;;;;;;20.63;14.02;;;20.60;56.10;;;;;;5116448;28;20015;-77
2022/03/28 11:53:15;;;;;;;19.75;13.65;;;20.70;56.10;;;;;;5115796;28;20378;-77
2022/03/28 11:55:53;;;;;;;17.08;13.75;;;20.90;55.20;;;;;;5115604;28;20051;-78
2022/03/28 11:58:31;;;;;;;18.75;13.02;;;20.90;55.40;;;;;;5098047;28;20027;-77
2022/03/28 12:01:10;;;;;;;21.25;14.32;;;20.90;55.40;;;;;;5116523;28;20437;-77
2022/03/28 12:03:37;;;;;;;21.30;14.07;;;21.10;54.90;;;;;;5115580;28;20023;-78
2022/03/28 12:06:04;;;;;;;22.42;14.50;;;21.00;55.10;;;;;;5097569;28;20042;-78
2022/03/28 12:08:30;;;;;;;21.38;13.93;;;20.90;55.70;;;;;;5115629;28;20313;-77
2022/03/28 12:10:56;;;;;;;18.75;13.48;;;20.80;55.90;;;;;;5097326;28;20092;-77
2022/03/28 12:13:24;;;;;;;22.02;13.95;;;20.90;55.70;;;;;;5115201;28;20492;-77
2022/03/28 12:15:52;;;;;;;41.75;15.98;;;20.90;56.20;;;;;;5115661;28;20022;-77
2022/03/28 12:18:20;;;;;;;21.75;15.00;;;20.80;56.70;;;;;;5115369;28;20040;-78
2022/03/28 12:20:48;;;;;;;23.92;15.15;;;20.70;56.90;;;;;;5115306;28;20095;-77
2022/03/28 12:23:15;;;;;;;24.80;14.90;;;20.70;57.10;;;;;;5115460;28;20692;-78
2022/03/28 12:25:44;;;;;;;19.05;14.15;;;20.40;56.90;;;;;;5115101;28;20512;-78
2022/03/28 12:28:12;;;;;;;19.38;13.48;;;20.20;58.10;;;;;;5115083;28;20024;-77
2022/03/28 12:30:41;;;;;;;21.90;13.48;;;20.00;58.40;;;;;;5115350;28;20011;-77
2022/03/28 12:33:32;;;;;;;21.90;13.90;;;20.00;58.10;;;;;;5096990;28;20024;-77
2022/03/28 12:36:04;;;;;;;22.85;14.68;;;19.80;58.40;;;;;;5105646;28;20036;-78
2022/03/28 12:38:33;;;;;;;20.80;13.60;;;20.10;58.30;;;;;;5115490;28;20602;-78
2022/03/28 12:41:04;;;;;;;21.95;14.80;;;20.30;58.20;;;;;;5115684;28;20024;-78
2022/03/28 12:43:31;;;;;;;19.30;13.32;;;20.50;58.30;;;;;;5115484;28;20039;-77
2022/03/28 12:45:59;;;;;;;22.05;13.35;;;20.70;58.00;;;;;;5096697;28;20058;-79
2022/03/28 12:48:41;;;;;;;20.73;12.80;;;20.90;57.30;;;;;;5114556;28;20019;-79
2022/03/28 12:51:08;;;;;;;15.55;12.38;;;20.90;57.00;;;;;;5114650;28;20023;-78
2022/03/28 12:53:35;;;;;;;18.88;12.70;;;20.80;57.30;;;;;;5114547;28;20028;-78
2022/03/28 12:56:16;;;;;;;18.80;13.25;;;20.50;57.30;;;;;;5115557;28;20016;-76
2022/03/28 12:58:53;;;;;;;20.15;11.85;;;20.30;57.80;;;;;;5096327;28;20020;-77
2022/03/28 13:01:26;;;;;;;17.80;13.35;;;20.50;57.40;;;;;;5096059;28;20028;-77
2022/03/28 13:04:16;;;;;;;19.23;13.32;;;20.60;56.90;;;;;;5114786;28;20031;-77
2022/03/28 13:06:46;;;;;;;20.23;14.38;;;20.60;57.20;;;;;;5114317;28;20016;-76
2022/03/28 13:09:21;;;;;;;17.70;13.35;;;20.60;57.10;;;;;;5096457;28;20400;-77
2022/03/28 13:11:48;;;;;;;20.80;12.32;;;20.60;57.00;;;;;;5095664;28;20038;-77
2022/03/28 13:14:28;;;;;;;17.15;12.50;;;20.60;57.10;;;;;;5113932;28;20049;-75
2022/03/28 13:17:07;;;;;;;16.42;12.35;;;20.60;56.90;;;;;;5113738;28;20436;-78
2022/03/28 13:19:35;;;;;;;22.83;12.05;;;20.40;56.80;;;;;;5113366;28;20412;-76
2022/03/28 13:22:04;;;;;;;21.02;12.13;;;20.50;57.10;;;;;;5112969;28;20031;-78